| time (UTC) | temp F | wind direction | speed MPH | gust MPH | rain 1hr in | rain 24hr in | rain mn in | humidity % | barometer mb |
| 20260502163016 | 61 | 70 | 6.0 | 10.0 | 0.00 | 0.00 | 0.00 | 25 | 1015.8 |
| 20260502161511 | 60 | 130 | 6.0 | 9.0 | 0.00 | 0.00 | 0.00 | 26 | 1015.8 |
| 20260502151523 | 54 | 41 | 4.0 | 6.0 | 0.00 | 0.00 | 0.00 | 32 | 1015.7 |
| 20260502123038 | 36 | 34 | 2.0 | 4.0 | 0.00 | 0.00 | 0.00 | 62 | 1015.7 |
| 20260502121545 | 36 | 33 | 1.0 | 4.0 | 0.00 | 0.00 | 0.00 | 60 | 1015.7 |
| 20260502114531 | 38 | 33 | 0.0 | 3.0 | 0.00 | 0.00 | 0.00 | 57 | 1015.6 |
| 20260502113029 | 39 | 33 | 2.0 | 4.0 | 0.00 | 0.00 | 0.00 | 55 | 1015.7 |
| 20260502111530 | 39 | 33 | 3.0 | 4.0 | 0.00 | 0.00 | 0.00 | 55 | 1015.8 |
| 20260502110013 | 39 | 33 | 0.0 | 3.0 | 0.00 | 0.00 | 0.00 | 56 | 1015.7 |
| 20260502104509 | 39 | 33 | 1.0 | 4.0 | 0.00 | 0.00 | 0.00 | 57 | 1015.8 |
| 20260502103051 | 38 | 11 | 2.0 | 4.0 | 0.00 | 0.00 | 0.00 | 58 | 1015.7 |
| 20260502101553 | 39 | 11 | 1.0 | 5.0 | 0.00 | 0.00 | 0.00 | 57 | 1015.5 |
| 20260502091501 | 44 | 13 | 1.0 | 4.0 | 0.00 | 0.00 | 0.00 | 46 | 1015.3 |
| 20260502070027 | 44 | 360 | 0.0 | 3.0 | 0.00 | 0.00 | 0.00 | 50 | 1016.2 |
| 20260502064527 | 46 | 346 | 2.0 | 3.0 | 0.00 | 0.00 | 0.00 | 45 | 1016.1 |
| 20260502063023 | 49 | 345 | 4.0 | 5.0 | 0.00 | 0.00 | 0.00 | 41 | 1016.1 |
| 20260502061509 | 50 | 249 | 6.0 | 8.0 | 0.00 | 0.00 | 0.00 | 40 | 1016.0 |
| 20260502060051 | 50 | 247 | 5.0 | 8.0 | 0.00 | 0.00 | 0.00 | 40 | 1016.0 |
| 20260502054550 | 49 | 240 | 5.0 | 7.0 | 0.00 | 0.00 | 0.00 | 41 | 1016.0 |
| 20260502053035 | 50 | 236 | 5.0 | 7.0 | 0.00 | 0.00 | 0.00 | 41 | 1016.0 |
| 20260502051542 | 48 | 212 | 5.0 | 7.0 | 0.00 | 0.00 | 0.00 | 44 | 1016.0 |
| 20260502050018 | 49 | 227 | 4.0 | 5.0 | 0.00 | 0.00 | 0.00 | 43 | 1016.0 |
| 20260502044515 | 51 | 248 | 5.0 | 8.0 | 0.00 | 0.00 | 0.00 | 41 | 1016.0 |
| 20260502043111 | 49 | 202 | 5.0 | 7.0 | 0.00 | 0.00 | 0.00 | 44 | 1016.1 |
| 20260502041633 | 50 | 207 | 4.0 | 7.0 | 0.00 | 0.00 | 0.00 | 44 | 1016.2 |
| 20260502040043 | 53 | 215 | 4.0 | 9.0 | 0.00 | 0.00 | 0.00 | 39 | 1016.2 |
| 20260502034539 | 53 | 227 | 5.0 | 7.0 | 0.00 | 0.00 | 0.00 | 38 | 1016.1 |
| 20260502033025 | 54 | 222 | 5.0 | 8.0 | 0.00 | 0.00 | 0.00 | 36 | 1016.1 |
| 20260502031520 | 55 | 203 | 2.0 | 4.0 | 0.00 | 0.00 | 0.00 | 33 | 1015.9 |
| 20260502030002 | 56 | 294 | 3.0 | 5.0 | 0.00 | 0.00 | 0.00 | 31 | 1015.7 |
| 20260502024501 | 57 | 295 | 5.0 | 7.0 | 0.00 | 0.00 | 0.00 | 30 | 1015.6 |
| 20260502023102 | 57 | 288 | 4.0 | 6.0 | 0.00 | 0.00 | 0.00 | 31 | 1015.4 |
| 20260502021543 | 59 | 287 | 5.0 | 7.0 | 0.00 | 0.00 | 0.00 | 29 | 1015.3 |
| 20260502020048 | 66 | 81 | 2.0 | 4.0 | 0.00 | 0.00 | 0.00 | 17 | 1015.3 |
| 20260502014528 | 67 | 74 | 3.0 | 5.0 | 0.00 | 0.00 | 0.00 | 17 | 1015.2 |
| 20260502013024 | 68 | 57 | 3.0 | 7.0 | 0.00 | 0.00 | 0.00 | 17 | 1015.1 |
| 20260502011505 | 68 | 91 | 2.0 | 5.0 | 0.00 | 0.00 | 0.00 | 17 | 1015.2 |
| 20260502010004 | 68 | 191 | 3.0 | 7.0 | 0.00 | 0.00 | 0.00 | 16 | 1015.3 |
| 20260502004555 | 68 | 179 | 0.0 | 6.0 | 0.00 | 0.00 | 0.00 | 17 | 1015.4 |
| 20260502003050 | 68 | 42 | 4.0 | 10.0 | 0.00 | 0.00 | 0.00 | 17 | 1015.5 |
| 20260502001558 | 68 | 117 | 4.0 | 9.0 | 0.00 | 0.00 | 0.00 | 17 | 1015.5 |
| 20260502000049 | 69 | 109 | 1.0 | 7.0 | 0.00 | 0.00 | 0.00 | 17 | 1015.6 |
| 20260501234547 | 69 | 83 | 7.0 | 11.0 | 0.00 | 0.00 | 0.00 | 16 | 1015.7 |
| 20260501233057 | 68 | 90 | 3.0 | 8.0 | 0.00 | 0.00 | 0.00 | 18 | 1015.8 |
| 20260501231557 | 68 | 96 | 10.0 | 13.0 | 0.00 | 0.00 | 0.00 | 18 | 1015.8 |
| 20260501230044 | 68 | 81 | 6.0 | 13.0 | 0.00 | 0.00 | 0.00 | 18 | 1015.9 |
| 20260501224525 | 68 | 92 | 1.0 | 8.0 | 0.00 | 0.00 | 0.00 | 19 | 1016.0 |
| 20260501223037 | 68 | 85 | 2.0 | 11.0 | 0.00 | 0.00 | 0.00 | 19 | 1016.1 |
| 20260501221613 | 67 | 83 | 6.0 | 13.0 | 0.00 | 0.00 | 0.00 | 20 | 1016.2 |
| 20260501220005 | 67 | 114 | 8.0 | 13.0 | 0.00 | 0.00 | 0.00 | 19 | 1016.4 |
| 20260501214547 | 67 | 73 | 7.0 | 13.0 | 0.00 | 0.00 | 0.00 | 19 | 1016.5 |
| 20260501213043 | 68 | 75 | 3.0 | 7.0 | 0.00 | 0.00 | 0.00 | 19 | 1016.8 |
| 20260501211526 | 66 | 104 | 3.0 | 11.0 | 0.00 | 0.00 | 0.00 | 20 | 1017.0 |
| 20260501210021 | 65 | 118 | 2.0 | 15.0 | 0.00 | 0.00 | 0.00 | 21 | 1017.2 |
| 20260501204501 | 66 | 76 | 7.0 | 14.0 | 0.00 | 0.00 | 0.00 | 21 | 1017.4 |
| 20260501203001 | 66 | 117 | 8.0 | 12.0 | 0.00 | 0.00 | 0.00 | 20 | 1017.6 |
| 20260501201541 | 65 | 159 | 0.0 | 11.0 | 0.00 | 0.00 | 0.00 | 22 | 1017.8 |
| 20260501200039 | 65 | 139 | 3.0 | 10.0 | 0.00 | 0.00 | 0.00 | 20 | 1017.8 |
| 20260501194520 | 64 | 177 | 6.0 | 14.0 | 0.00 | 0.00 | 0.00 | 21 | 1018.0 |
| 20260501193021 | 64 | 53 | 7.0 | 11.0 | 0.00 | 0.00 | 0.00 | 21 | 1018.0 |
| 20260501191602 | 64 | 94 | 3.0 | 9.0 | 0.00 | 0.00 | 0.00 | 22 | 1018.1 |
| 20260501190058 | 63 | 32 | 2.0 | 14.0 | 0.00 | 0.00 | 0.00 | 22 | 1018.3 |
| 20260501184537 | 63 | 173 | 2.0 | 9.0 | 0.00 | 0.00 | 0.00 | 22 | 1018.6 |
| 20260501183036 | 62 | 92 | 4.0 | 13.0 | 0.00 | 0.00 | 0.00 | 22 | 1018.7 |
| 20260501181516 | 62 | 110 | 7.0 | 14.0 | 0.00 | 0.00 | 0.00 | 23 | 1018.9 |
| 20260501180015 | 61 | 338 | 3.0 | 10.0 | 0.00 | 0.00 | 0.00 | 23 | 1018.9 |
| 20260501174608 | 62 | 5 | 4.0 | 6.0 | 0.00 | 0.00 | 0.00 | 23 | 1019.1 |
| 20260501173055 | 62 | 50 | 5.0 | 14.0 | 0.00 | 0.00 | 0.00 | 23 | 1019.2 |
| 20260501171536 | 61 | 266 | 2.0 | 7.0 | 0.00 | 0.00 | 0.00 | 23 | 1019.3 |
| 20260501170038 | 61 | 30 | 4.0 | 7.0 | 0.00 | 0.00 | 0.00 | 24 | 1019.4 |